BAW602 EGLL-LIPZ
Flight info
| Callsign | BAW602 |
|---|---|
| Flight time | N/A |
| Altitude | 37000 |
| Route | DET L6 DVR L9 KONAN UL607 REMBA M624 RITAX DCT KRH DCT BATUB M738 NATAG DCT LORLO DCT UNTAD DCT NEGIK DCT ADOSA L612 ALBET |
| Aircraft | A320/M-SDE3FGHIRWY/LB1 |
Departure
| Time | 2026-04-30 11:56 |
|---|---|
| Airport | London Heathrow Airport (EGLL) |
Arrival
| Time | N/A |
|---|---|
| Airport | Venice Marco Polo Airport (LIPZ) |
| Time | Latitude | Longitude | Altitude | Speed | Heading |
|---|---|---|---|---|---|
| 2026-04-30 11:17 | 51.47220 | -0.47704 | 87 ft | 0 kts | 89° |
| 2026-04-30 11:42 | 51.47220 | -0.47729 | 90 ft | 4 kts | 91° |
| 2026-04-30 11:43 | 51.47221 | -0.47772 | 90 ft | 4 kts | 95° |
| 2026-04-30 11:43 | 51.47224 | -0.47815 | 91 ft | 4 kts | 101° |
| 2026-04-30 11:43 | 51.47232 | -0.47856 | 89 ft | 4 kts | 126° |
| 2026-04-30 11:43 | 51.47246 | -0.47874 | 88 ft | 1 kts | 180° |
| 2026-04-30 11:44 | 51.47250 | -0.47874 | 88 ft | 0 kts | 180° |
| 2026-04-30 11:47 | 51.47245 | -0.47874 | 88 ft | 2 kts | 180° |
| 2026-04-30 11:47 | 51.47225 | -0.47874 | 87 ft | 4 kts | 180° |
| 2026-04-30 11:48 | 51.47213 | -0.47874 | 88 ft | 1 kts | 180° |
| 2026-04-30 11:48 | 51.47209 | -0.47874 | 88 ft | 0 kts | 180° |
| 2026-04-30 11:48 | 51.47199 | -0.47874 | 87 ft | 2 kts | 180° |
| 2026-04-30 11:48 | 51.47196 | -0.47874 | 87 ft | 0 kts | 179° |
| 2026-04-30 11:49 | 51.47194 | -0.47874 | 87 ft | 1 kts | 179° |
| 2026-04-30 11:50 | 51.47175 | -0.47874 | 87 ft | 4 kts | 179° |
| 2026-04-30 11:50 | 51.47133 | -0.47873 | 87 ft | 8 kts | 180° |
| 2026-04-30 11:50 | 51.47046 | -0.47872 | 87 ft | 16 kts | 179° |
| 2026-04-30 11:50 | 51.46927 | -0.47870 | 87 ft | 18 kts | 180° |
| 2026-04-30 11:51 | 51.46790 | -0.47870 | 87 ft | 21 kts | 179° |
| 2026-04-30 11:51 | 51.46694 | -0.47870 | 87 ft | 10 kts | 180° |
| 2026-04-30 11:51 | 51.46652 | -0.47937 | 87 ft | 11 kts | 269° |
| 2026-04-30 11:51 | 51.46653 | -0.48067 | 87 ft | 13 kts | 270° |
| 2026-04-30 11:52 | 51.46653 | -0.48220 | 87 ft | 15 kts | 270° |
| 2026-04-30 11:52 | 51.46653 | -0.48385 | 87 ft | 14 kts | 270° |
| 2026-04-30 11:52 | 51.46622 | -0.48471 | 89 ft | 6 kts | 186° |
| 2026-04-30 11:52 | 51.46599 | -0.48470 | 89 ft | 3 kts | 180° |
| 2026-04-30 11:53 | 51.46598 | -0.48470 | 89 ft | 0 kts | 180° |
| 2026-04-30 11:53 | 51.46593 | -0.48470 | 88 ft | 1 kts | 180° |
| 2026-04-30 11:53 | 51.46578 | -0.48470 | 90 ft | 3 kts | 180° |
| 2026-04-30 11:54 | 51.46556 | -0.48470 | 88 ft | 4 kts | 180° |
| 2026-04-30 11:54 | 51.46528 | -0.48471 | 89 ft | 5 kts | 180° |
| 2026-04-30 11:54 | 51.46489 | -0.48471 | 89 ft | 5 kts | 180° |
| 2026-04-30 11:54 | 51.46479 | -0.48451 | 91 ft | 2 kts | 85° |
| 2026-04-30 11:55 | 51.46479 | -0.48441 | 90 ft | 0 kts | 90° |
| 2026-04-30 11:55 | 51.46479 | -0.48439 | 90 ft | 1 kts | 90° |
| 2026-04-30 11:56 | 51.46479 | -0.48242 | 89 ft | 49 kts | 90° |
| 2026-04-30 11:56 | 51.46480 | -0.47337 | 86 ft | 109 kts | 89° |
| 2026-04-30 11:56 | 51.46486 | -0.45867 | 94 ft | 153 kts | 89° |
| 2026-04-30 11:56 | 51.46511 | -0.44162 | 735 ft | 151 kts | 91° |
| 2026-04-30 11:57 | 51.46526 | -0.42479 | 1457 ft | 152 kts | 95° |
| 2026-04-30 11:57 | 51.46094 | -0.40863 | 1806 ft | 173 kts | 129° |
| 2026-04-30 11:57 | 51.45318 | -0.39236 | 2116 ft | 195 kts | 118° |
| 2026-04-30 11:57 | 51.44612 | -0.37213 | 2558 ft | 220 kts | 119° |
| 2026-04-30 11:58 | 51.43832 | -0.34980 | 3252 ft | 236 kts | 114° |
| 2026-04-30 11:58 | 51.43378 | -0.32435 | 4275 ft | 239 kts | 106° |
| 2026-04-30 11:58 | 51.42997 | -0.29825 | 5264 ft | 243 kts | 106° |
| 2026-04-30 11:58 | 51.42610 | -0.27163 | 6127 ft | 248 kts | 106° |
| 2026-04-30 11:59 | 51.42226 | -0.24426 | 6963 ft | 255 kts | 105° |
| 2026-04-30 11:59 | 51.41841 | -0.21629 | 7825 ft | 259 kts | 105° |
| 2026-04-30 11:59 | 51.41455 | -0.18795 | 8717 ft | 263 kts | 105° |
| 2026-04-30 11:59 | 51.41063 | -0.15913 | 9583 ft | 267 kts | 104° |
| 2026-04-30 12:00 | 51.40665 | -0.12991 | 10409 ft | 272 kts | 104° |
| 2026-04-30 12:00 | 51.40241 | -0.09913 | 10692 ft | 295 kts | 104° |
| 2026-04-30 12:00 | 51.39778 | -0.06589 | 10953 ft | 315 kts | 104° |
| 2026-04-30 12:00 | 51.39295 | -0.03107 | 11549 ft | 324 kts | 104° |
| 2026-04-30 12:01 | 51.38803 | 0.00436 | 12244 ft | 328 kts | 104° |
| 2026-04-30 12:01 | 51.38305 | 0.04022 | 12959 ft | 332 kts | 104° |
| 2026-04-30 12:01 | 51.37802 | 0.07648 | 13667 ft | 336 kts | 104° |
| 2026-04-30 12:01 | 51.37289 | 0.11324 | 14320 ft | 340 kts | 104° |
| 2026-04-30 12:02 | 51.36945 | 0.13783 | 14720 ft | 343 kts | 104° |
| 2026-04-30 12:02 | 51.36419 | 0.17525 | 15340 ft | 346 kts | 104° |
| 2026-04-30 12:02 | 51.35887 | 0.21305 | 15956 ft | 350 kts | 104° |
| 2026-04-30 12:02 | 51.35350 | 0.25116 | 16561 ft | 353 kts | 105° |
| 2026-04-30 12:03 | 51.34807 | 0.28966 | 17165 ft | 356 kts | 105° |
| 2026-04-30 12:03 | 51.33695 | 0.36773 | 18423 ft | 364 kts | 105° |
| 2026-04-30 12:03 | 51.33126 | 0.40734 | 18978 ft | 367 kts | 105° |
| 2026-04-30 12:04 | 51.32555 | 0.44721 | 19569 ft | 370 kts | 105° |
| 2026-04-30 12:04 | 51.31982 | 0.48738 | 20154 ft | 372 kts | 105° |
| 2026-04-30 12:04 | 51.31401 | 0.52778 | 20740 ft | 374 kts | 105° |
| 2026-04-30 12:04 | 51.30816 | 0.56835 | 21306 ft | 376 kts | 105° |
| 2026-04-30 12:05 | 51.30215 | 0.60912 | 21846 ft | 378 kts | 106° |
| 2026-04-30 12:05 | 51.29537 | 0.64974 | 22388 ft | 379 kts | 107° |
| 2026-04-30 12:05 | 51.28796 | 0.69032 | 22916 ft | 381 kts | 108° |
| 2026-04-30 12:05 | 51.28023 | 0.73096 | 23435 ft | 383 kts | 108° |
| 2026-04-30 12:06 | 51.27240 | 0.77181 | 23936 ft | 386 kts | 108° |
| 2026-04-30 12:06 | 51.26460 | 0.81292 | 24358 ft | 388 kts | 108° |
| 2026-04-30 12:06 | 51.25683 | 0.85433 | 24797 ft | 390 kts | 108° |
| 2026-04-30 12:06 | 51.24910 | 0.89596 | 25201 ft | 392 kts | 108° |
| 2026-04-30 12:07 | 51.24137 | 0.93786 | 25622 ft | 395 kts | 108° |
| 2026-04-30 12:07 | 51.23360 | 0.97999 | 26034 ft | 397 kts | 108° |
| 2026-04-30 12:07 | 51.22577 | 1.02227 | 26433 ft | 399 kts | 108° |
| 2026-04-30 12:07 | 51.21785 | 1.06481 | 26832 ft | 401 kts | 108° |